Siam — SGIP — position and weather

sailwx.info

Track history (hours):
 
Tides and Currents Weather Stations Pressure Air Temp Water Temp Dewpoint Dewpoint Depression Visibility Wind Speed Wind Dir Waves Ship Positions

Siam

Last reported at 2016-Jul-24 19:32 UTC. Time now 2016-Jul-24 20:23 UTC.
Position N 55°60' E 012°45'.

Length 22 m.

Type: Passenger vessel. MMSI: 265572320.

Date/timePositionNaut miles runAvg speedWind from/ knotsBaromVisibWave heightAir tempDewpointWater temp
2016-Jul-24 19:32N 55°60' E 012°45'0 0.0
2016-Jul-24 18:23N 55°60' E 012°45'0 0.0
2016-Jul-24 17:32N 55°60' E 012°45'0 0.0
2016-Jul-24 16:32N 55°60' E 012°45'4 4.2
2016-Jul-24 15:33N 55°55' E 012°44'3 3.3
2016-Jul-24 14:33N 55°52' E 012°44'2 2.4
2016-Jul-24 13:33N 55°50' E 012°46'0 0.4
2016-Jul-24 12:32N 55°50' E 012°46'9 9.0
2016-Jul-24 11:33N 55°59' E 012°44'1 0.5
2016-Jul-24 10:32N 55°60' E 012°45'4 4.4
2016-Jul-24 09:33N 55°55' E 012°44'0 0.1
2016-Jul-24 08:33N 55°55' E 012°44'3 2.7
2016-Jul-24 07:33N 55°58' E 012°41'3 2.5
2016-Jul-24 06:33N 56°00' E 012°42'2 1.6
2016-Jul-24 05:29N 55°60' E 012°45'0 0.0
2016-Jul-24 04:26N 55°60' E 012°45'0 0.0
2016-Jul-24 03:32N 55°60' E 012°45'0 0.0
2016-Jul-24 02:32N 55°60' E 012°45'0 0.0
2016-Jul-24 01:29N 55°60' E 012°45'0 0.0
2016-Jul-24 00:32N 55°60' E 012°45'0 0.0
2016-Jul-23 23:23N 55°60' E 012°45'0 0.0
2016-Jul-23 22:32N 55°60' E 012°45'0 0.0
2016-Jul-23 21:29N 55°60' E 012°45'0 0.0
2016-Jul-23 20:32N 55°60' E 012°45'0 0.0
2016-Jul-23 19:32N 55°60' E 012°45'0 0.0
2016-Jul-23 18:32N 55°60' E 012°45'0 0.0
2016-Jul-23 17:26N 55°60' E 012°45'0 0.0
2016-Jul-23 16:14N 55°60' E 012°45'0 0.0
2016-Jul-23 15:32N 55°60' E 012°45'4 4.2
2016-Jul-23 14:33N 55°56' E 012°40'1 1.0
2016-Jul-23 13:31N 55°56' E 012°39'1 0.6
2016-Jul-23 12:33N 55°56' E 012°40'4 4.3
2016-Jul-23 11:32N 55°60' E 012°45'0 0.1
2016-Jul-23 10:32N 55°60' E 012°45'4 4.6
2016-Jul-23 09:33N 55°56' E 012°40'0 0.0
2016-Jul-23 08:34N 55°56' E 012°40'3 2.7
2016-Jul-23 07:33N 55°59' E 012°42'1 1.3
2016-Jul-23 06:31N 55°60' E 012°42'2 0.9
2016-Jul-23 04:33N 55°60' E 012°45'0 0.0
2016-Jul-23 03:33N 55°60' E 012°45'0 0.0
2016-Jul-23 02:27N 55°60' E 012°45'0 0.0
2016-Jul-23 01:33N 55°60' E 012°45'0 0.0
2016-Jul-23 00:30N 55°60' E 012°45'0 0.0
2016-Jul-22 23:33N 55°60' E 012°45'0 0.0
2016-Jul-22 22:33N 55°60' E 012°45'0 0.0
2016-Jul-22 21:33N 55°60' E 012°45'0 0.0
2016-Jul-22 20:33N 55°60' E 012°45'0 0.0
2016-Jul-22 19:30N 55°60' E 012°45'0 0.0
2016-Jul-22 18:33N 55°60' E 012°45'0 0.0
2016-Jul-22 17:33N 55°60' E 012°45'0 0.0
2016-Jul-22 16:33N 55°60' E 012°45'0 0.0
2016-Jul-22 15:33N 55°60' E 012°45'2 2.4
2016-Jul-22 14:33N 55°57' E 012°44'0 0.1
2016-Jul-22 13:33N 55°57' E 012°44'2 2.2
2016-Jul-22 12:31N 55°60' E 012°45'3 2.8
2016-Jul-22 11:31N 55°57' E 012°42'3 2.7
2016-Jul-22 10:33N 56°00' E 012°42'1 1.3
2016-Jul-22 09:33N 55°59' E 012°41'3 2.6
2016-Jul-22 08:33N 56°01' E 012°41'1 1.4
2016-Jul-22 07:33N 56°00' E 012°42'2 0.9
2016-Jul-22 05:33N 55°60' E 012°45'0 0.0
2016-Jul-22 04:30N 55°60' E 012°45'0 0.0
2016-Jul-22 03:33N 55°60' E 012°45'0 0.0
2016-Jul-22 02:34N 55°60' E 012°45'0 0.0
2016-Jul-22 01:34N 55°60' E 012°45'0 0.0
2016-Jul-22 00:34N 55°60' E 012°45'0 0.0
2016-Jul-21 23:34N 55°60' E 012°45'0 0.0
2016-Jul-21 22:34N 55°60' E 012°45'0 0.0
2016-Jul-21 21:31N 55°60' E 012°45'0 0.0
2016-Jul-21 20:31N 55°60' E 012°45'0 0.0
2016-Jul-21 19:31N 55°60' E 012°45'0 0.0
2016-Jul-21 18:31N 55°60' E 012°45'0 0.0
2016-Jul-21 17:28N 55°60' E 012°45'0 0.0
2016-Jul-21 16:31N 55°60' E 012°45'0 0.0
2016-Jul-21 15:31N 55°60' E 012°45'3 2.7
2016-Jul-21 14:33N 55°57' E 012°44'1 0.9
2016-Jul-21 13:33N 55°58' E 012°44'1 1.3
2016-Jul-21 12:33N 55°59' E 012°44'10 9.7
2016-Jul-21 11:31N 55°49' E 012°46'0 0.3
2016-Jul-21 10:25N 55°49' E 012°47'1 0.8
2016-Jul-21 09:33N 55°49' E 012°46'1 0.8
2016-Jul-21 08:32N 55°50' E 012°46'6 6.4
2016-Jul-21 07:33N 55°56' E 012°42'2 1.7
2016-Jul-21 06:33N 55°58' E 012°41'3 2.7
2016-Jul-21 05:33N 55°60' E 012°45'0 0.0
2016-Jul-21 04:30N 55°60' E 012°45'0 0.0
2016-Jul-21 03:27N 55°60' E 012°45'0 0.0
2016-Jul-21 02:30N 55°60' E 012°45'0 0.0
2016-Jul-21 01:30N 55°60' E 012°45'0 0.0
2016-Jul-21 00:33N 55°60' E 012°45'0 0.0
2016-Jul-20 23:30N 55°60' E 012°45'0 0.0
2016-Jul-20 22:33N 55°60' E 012°45'0 0.0
2016-Jul-20 21:33N 55°60' E 012°45'0 0.0
2016-Jul-20 20:33N 55°60' E 012°45'0 0.0
2016-Jul-20 19:33N 55°60' E 012°45'0 0.0
2016-Jul-20 18:33N 55°60' E 012°45'0 0.0
2016-Jul-20 17:33N 55°60' E 012°45'0 0.0
2016-Jul-20 16:33N 55°60' E 012°45'0 0.0
2016-Jul-20 15:33N 55°60' E 012°45'2 1.6
2016-Jul-20 14:34N 55°58' E 012°44'4 3.8
2016-Jul-20 13:33N 55°54' E 012°43'5 5.5
2016-Jul-20 12:33N 55°60' E 012°45'0 0.0
2016-Jul-20 11:33N 55°60' E 012°45'0 0.0
2016-Jul-20 10:33N 55°60' E 012°45'5 5.1
2016-Jul-20 09:34N 55°56' E 012°39'0 0.1
2016-Jul-20 08:31N 55°56' E 012°39'2 2.0
2016-Jul-20 07:33N 55°57' E 012°41'2 2.4
2016-Jul-20 06:34N 55°60' E 012°42'2 1.5
2016-Jul-20 05:31N 55°60' E 012°45'0 0.0
2016-Jul-20 04:31N 55°60' E 012°45'0 0.0
2016-Jul-20 03:31N 55°60' E 012°45'0 0.0
2016-Jul-20 02:31N 55°60' E 012°45'0 0.0
2016-Jul-20 01:31N 55°60' E 012°45'0 0.0
2016-Jul-20 00:31N 55°60' E 012°45'0 0.0
2016-Jul-19 23:31N 55°60' E 012°45'0 0.0
2016-Jul-19 22:31N 55°60' E 012°45'0 0.0
2016-Jul-19 21:31N 55°60' E 012°45'0 0.0
2016-Jul-19 20:31N 55°60' E 012°45'0 0.0
2016-Jul-19 19:31N 55°60' E 012°45'0 0.0
2016-Jul-19 18:31N 55°60' E 012°45'0 0.0
2016-Jul-19 17:31N 55°60' E 012°45'0 0.0
2016-Jul-19 16:31N 55°60' E 012°45'0 0.0
2016-Jul-19 15:31N 55°60' E 012°45'2 2.2
2016-Jul-19 14:33N 55°59' E 012°41'1 1.4
2016-Jul-19 13:33N 56°00' E 012°42'1 1.1
2016-Jul-19 12:34N 56°01' E 012°40'3 2.6
2016-Jul-19 11:33N 55°59' E 012°44'0 0.1
2016-Jul-19 10:34N 55°60' E 012°45'5 4.8
2016-Jul-19 09:33N 55°55' E 012°46'5 4.9
2016-Jul-19 08:33N 55°50' E 012°45'0 0.2
2016-Jul-19 07:33N 55°50' E 012°45'10 3.3
2016-Jul-19 04:31N 55°60' E 012°45'0 0.0
2016-Jul-19 03:31N 55°60' E 012°45'0 0.0
2016-Jul-19 02:31N 55°60' E 012°45'0 0.0
2016-Jul-19 01:31N 55°60' E 012°45'0 0.0
2016-Jul-19 00:31N 55°60' E 012°45'0 0.0
2016-Jul-18 23:31N 55°60' E 012°45'0 0.0
2016-Jul-18 22:31N 55°60' E 012°45'0 0.0
2016-Jul-18 21:31N 55°60' E 012°45'0 0.0
2016-Jul-18 20:31N 55°60' E 012°45'0 0.0
2016-Jul-18 19:31N 55°60' E 012°45'0 0.0
2016-Jul-18 18:31N 55°60' E 012°45'0 0.0
2016-Jul-18 17:31N 55°60' E 012°45'0 0.0
2016-Jul-18 16:31N 55°60' E 012°45'1 0.8
2016-Jul-18 15:33N 55°59' E 012°44'5 5.4
2016-Jul-18 14:33N 55°53' E 012°44'0 0.2
2016-Jul-18 13:33N 55°53' E 012°44'0 0.5
2016-Jul-18 12:33N 55°53' E 012°45'7 6.6
2016-Jul-18 11:33N 55°59' E 012°44'0 0.1
2016-Jul-18 10:33N 55°60' E 012°45'1 1.2
2016-Jul-18 09:33N 55°59' E 012°43'4 4.1
2016-Jul-18 08:33N 55°56' E 012°39'2 1.6
2016-Jul-18 07:33N 55°56' E 012°36'2 1.6
2016-Jul-18 06:33N 55°57' E 012°38'4 4.2
2016-Jul-18 05:33N 55°60' E 012°45'0 0.0
2016-Jul-18 04:33N 55°60' E 012°45'0 0.0
2016-Jul-18 03:33N 55°60' E 012°45'0 0.0
2016-Jul-18 02:30N 55°60' E 012°45'0 0.0
2016-Jul-18 01:33N 55°60' E 012°45'0 0.0
2016-Jul-18 00:33N 55°60' E 012°45'0 0.0
2016-Jul-17 23:33N 55°60' E 012°45'0 0.0
2016-Jul-17 22:33N 55°60' E 012°45'0 0.0
2016-Jul-17 21:33N 55°60' E 012°45'0 0.0
2016-Jul-17 20:33N 55°60' E 012°45'0 0.0
2016-Jul-17 19:33N 55°60' E 012°45'0 0.0
2016-Jul-17 18:33N 55°60' E 012°45'0 0.0
2016-Jul-17 17:33N 55°60' E 012°45'0 0.0
2016-Jul-17 16:33N 55°60' E 012°45'2 1.6
2016-Jul-17 15:33N 55°58' E 012°45'5 5.0
2016-Jul-17 14:33N 55°53' E 012°45'1 0.8
2016-Jul-17 13:33N 55°52' E 012°45'0 0.4
2016-Jul-17 12:31N 55°53' E 012°46'6 6.7
2016-Jul-17 11:33N 55°59' E 012°44'1 0.5
2016-Jul-17 10:31N 55°60' E 012°45'4 4.5
2016-Jul-17 09:33N 55°56' E 012°40'0 0.4
2016-Jul-17 08:32N 55°56' E 012°40'3 2.8
2016-Jul-17 07:33N 55°59' E 012°41'1 1.4
2016-Jul-17 06:33N 55°60' E 012°42'2 0.8
2016-Jul-17 04:31N 55°60' E 012°45'0 0.0
2016-Jul-17 03:31N 55°60' E 012°45'0 0.0
2016-Jul-17 02:28N 55°60' E 012°45'0 0.0
2016-Jul-17 01:31N 55°60' E 012°45'0 0.0
2016-Jul-17 00:31N 55°60' E 012°45'0 0.0
2016-Jul-16 23:31N 55°60' E 012°45'0 0.0
2016-Jul-16 22:31N 55°60' E 012°45'0 0.0
2016-Jul-16 21:28N 55°60' E 012°45'0 0.0
2016-Jul-16 20:31N 55°60' E 012°45'0 0.0
2016-Jul-16 19:31N 55°60' E 012°45'0 0.0
2016-Jul-16 18:31N 55°60' E 012°45'0 0.0
2016-Jul-16 17:31N 55°60' E 012°45'0 0.0
2016-Jul-16 16:31N 55°60' E 012°45'0 0.0
2016-Jul-16 15:31N 55°60' E 012°45'0 0.0
2016-Jul-16 14:31N 55°60' E 012°45'0 0.0
2016-Jul-16 13:31N 55°60' E 012°45'0 0.0
2016-Jul-16 12:31N 55°60' E 012°45'0 0.0
2016-Jul-16 11:31N 55°60' E 012°45'0 0.0
2016-Jul-16 10:31N 55°60' E 012°45'5 5.3
2016-Jul-16 09:33N 55°55' E 012°46'1 0.8
2016-Jul-16 08:34N 55°55' E 012°45'2 2.3
2016-Jul-16 07:33N 55°56' E 012°41'3 2.9
2016-Jul-16 06:33N 55°59' E 012°41'2 1.0
2016-Jul-16 04:32N 55°60' E 012°45'0 0.0
2016-Jul-16 03:32N 55°60' E 012°45'0 0.0
2016-Jul-16 02:32N 55°60' E 012°45'0 0.0
2016-Jul-16 01:32N 55°60' E 012°45'0 0.0
2016-Jul-16 00:32N 55°60' E 012°45'0 0.0
2016-Jul-15 23:32N 55°60' E 012°45'0 0.0
2016-Jul-15 22:32N 55°60' E 012°45'0 0.0
2016-Jul-15 21:32N 55°60' E 012°45'0 0.0
2016-Jul-15 20:32N 55°60' E 012°45'0 0.0
2016-Jul-15 19:32N 55°60' E 012°45'0 0.0
2016-Jul-15 18:23N 55°60' E 012°45'0 0.0
2016-Jul-15 17:32N 55°60' E 012°45'0 0.0
2016-Jul-15 16:32N 55°60' E 012°45'2 2.3
2016-Jul-15 15:33N 55°57' E 012°45'3 2.8
2016-Jul-15 14:33N 55°55' E 012°46'2 2.0
2016-Jul-15 13:33N 55°53' E 012°46'0 0.2
2016-Jul-15 12:33N 55°53' E 012°46'7 6.6
2016-Jul-15 11:33N 55°59' E 012°44'0 0.4
2016-Jul-15 10:33N 55°60' E 012°45'2 1.6
2016-Jul-15 09:32N 55°60' E 012°42'3 3.4
2016-Jul-15 08:33N 55°56' E 012°42'2 1.8
2016-Jul-15 07:33N 55°56' E 012°39'1 0.8
2016-Jul-15 06:33N 55°56' E 012°40'4 4.3
2016-Jul-15 05:33N 55°60' E 012°45'0 0.0
2016-Jul-15 04:33N 55°60' E 012°45'0 0.0
2016-Jul-15 03:33N 55°60' E 012°45'0 0.0
2016-Jul-15 02:33N 55°60' E 012°45'0 0.0
2016-Jul-15 01:33N 55°60' E 012°45'0 0.0
2016-Jul-15 00:33N 55°60' E 012°45'0 0.0
2016-Jul-14 23:33N 55°60' E 012°45'0 0.0
2016-Jul-14 22:33N 55°60' E 012°45'0 0.0
2016-Jul-14 21:33N 55°60' E 012°45'0 0.0
2016-Jul-14 20:33N 55°60' E 012°45'0 0.0
2016-Jul-14 19:33N 55°60' E 012°45'  
Track history (hours):
 
Tides and Currents Weather Stations Pressure Air Temp Water Temp Dewpoint Dewpoint Depression Visibility Wind Speed Wind Dir Waves Ship Positions

Siam

Last reported at 2016-Jul-24 19:32 UTC. Time now 2016-Jul-24 20:23 UTC.
Position N 55°60' E 012°45'.

Length 22 m.

Type: Passenger vessel. MMSI: 265572320.

Date/timePositionNaut miles runAvg speedWind from/ knotsBaromVisibWave heightAir tempDewpointWater temp
2016-Jul-24 19:32N 55°60' E 012°45'0 0.0
2016-Jul-24 18:23N 55°60' E 012°45'0 0.0
2016-Jul-24 17:32N 55°60' E 012°45'0 0.0
2016-Jul-24 16:32N 55°60' E 012°45'4 4.2
2016-Jul-24 15:33N 55°55' E 012°44'3 3.3
2016-Jul-24 14:33N 55°52' E 012°44'2 2.4
2016-Jul-24 13:33N 55°50' E 012°46'0 0.4
2016-Jul-24 12:32N 55°50' E 012°46'9 9.0
2016-Jul-24 11:33N 55°59' E 012°44'1 0.5
2016-Jul-24 10:32N 55°60' E 012°45'4 4.4
2016-Jul-24 09:33N 55°55' E 012°44'0 0.1
2016-Jul-24 08:33N 55°55' E 012°44'3 2.7
2016-Jul-24 07:33N 55°58' E 012°41'3 2.5
2016-Jul-24 06:33N 56°00' E 012°42'2 1.6
2016-Jul-24 05:29N 55°60' E 012°45'0 0.0
2016-Jul-24 04:26N 55°60' E 012°45'0 0.0
2016-Jul-24 03:32N 55°60' E 012°45'0 0.0
2016-Jul-24 02:32N 55°60' E 012°45'0 0.0
2016-Jul-24 01:29N 55°60' E 012°45'0 0.0
2016-Jul-24 00:32N 55°60' E 012°45'0 0.0
2016-Jul-23 23:23N 55°60' E 012°45'0 0.0
2016-Jul-23 22:32N 55°60' E 012°45'0 0.0
2016-Jul-23 21:29N 55°60' E 012°45'0 0.0
2016-Jul-23 20:32N 55°60' E 012°45'0 0.0
2016-Jul-23 19:32N 55°60' E 012°45'0 0.0
2016-Jul-23 18:32N 55°60' E 012°45'0 0.0
2016-Jul-23 17:26N 55°60' E 012°45'0 0.0
2016-Jul-23 16:14N 55°60' E 012°45'0 0.0
2016-Jul-23 15:32N 55°60' E 012°45'4 4.2
2016-Jul-23 14:33N 55°56' E 012°40'1 1.0
2016-Jul-23 13:31N 55°56' E 012°39'1 0.6
2016-Jul-23 12:33N 55°56' E 012°40'4 4.3
2016-Jul-23 11:32N 55°60' E 012°45'0 0.1
2016-Jul-23 10:32N 55°60' E 012°45'4 4.6
2016-Jul-23 09:33N 55°56' E 012°40'0 0.0
2016-Jul-23 08:34N 55°56' E 012°40'3 2.7
2016-Jul-23 07:33N 55°59' E 012°42'1 1.3
2016-Jul-23 06:31N 55°60' E 012°42'2 0.9
2016-Jul-23 04:33N 55°60' E 012°45'0 0.0
2016-Jul-23 03:33N 55°60' E 012°45'0 0.0
2016-Jul-23 02:27N 55°60' E 012°45'0 0.0
2016-Jul-23 01:33N 55°60' E 012°45'0 0.0
2016-Jul-23 00:30N 55°60' E 012°45'0 0.0
2016-Jul-22 23:33N 55°60' E 012°45'0 0.0
2016-Jul-22 22:33N 55°60' E 012°45'0 0.0
2016-Jul-22 21:33N 55°60' E 012°45'0 0.0
2016-Jul-22 20:33N 55°60' E 012°45'0 0.0
2016-Jul-22 19:30N 55°60' E 012°45'0 0.0
2016-Jul-22 18:33N 55°60' E 012°45'0 0.0
2016-Jul-22 17:33N 55°60' E 012°45'0 0.0
2016-Jul-22 16:33N 55°60' E 012°45'0 0.0
2016-Jul-22 15:33N 55°60' E 012°45'2 2.4
2016-Jul-22 14:33N 55°57' E 012°44'0 0.1
2016-Jul-22 13:33N 55°57' E 012°44'2 2.2
2016-Jul-22 12:31N 55°60' E 012°45'3 2.8
2016-Jul-22 11:31N 55°57' E 012°42'3 2.7
2016-Jul-22 10:33N 56°00' E 012°42'1 1.3
2016-Jul-22 09:33N 55°59' E 012°41'3 2.6
2016-Jul-22 08:33N 56°01' E 012°41'1 1.4
2016-Jul-22 07:33N 56°00' E 012°42'2 0.9
2016-Jul-22 05:33N 55°60' E 012°45'0 0.0
2016-Jul-22 04:30N 55°60' E 012°45'0 0.0
2016-Jul-22 03:33N 55°60' E 012°45'0 0.0
2016-Jul-22 02:34N 55°60' E 012°45'0 0.0
2016-Jul-22 01:34N 55°60' E 012°45'0 0.0
2016-Jul-22 00:34N 55°60' E 012°45'0 0.0
2016-Jul-21 23:34N 55°60' E 012°45'0 0.0
2016-Jul-21 22:34N 55°60' E 012°45'0 0.0
2016-Jul-21 21:31N 55°60' E 012°45'0 0.0
2016-Jul-21 20:31N 55°60' E 012°45'0 0.0
2016-Jul-21 19:31N 55°60' E 012°45'0 0.0
2016-Jul-21 18:31N 55°60' E 012°45'0 0.0
2016-Jul-21 17:28N 55°60' E 012°45'0 0.0
2016-Jul-21 16:31N 55°60' E 012°45'0 0.0
2016-Jul-21 15:31N 55°60' E 012°45'3 2.7
2016-Jul-21 14:33N 55°57' E 012°44'1 0.9
2016-Jul-21 13:33N 55°58' E 012°44'1 1.3
2016-Jul-21 12:33N 55°59' E 012°44'10 9.7
2016-Jul-21 11:31N 55°49' E 012°46'0 0.3
2016-Jul-21 10:25N 55°49' E 012°47'1 0.8
2016-Jul-21 09:33N 55°49' E 012°46'1 0.8
2016-Jul-21 08:32N 55°50' E 012°46'6 6.4
2016-Jul-21 07:33N 55°56' E 012°42'2 1.7
2016-Jul-21 06:33N 55°58' E 012°41'3 2.7
2016-Jul-21 05:33N 55°60' E 012°45'0 0.0
2016-Jul-21 04:30N 55°60' E 012°45'0 0.0
2016-Jul-21 03:27N 55°60' E 012°45'0 0.0
2016-Jul-21 02:30N 55°60' E 012°45'0 0.0
2016-Jul-21 01:30N 55°60' E 012°45'0 0.0
2016-Jul-21 00:33N 55°60' E 012°45'0 0.0
2016-Jul-20 23:30N 55°60' E 012°45'0 0.0
2016-Jul-20 22:33N 55°60' E 012°45'0 0.0
2016-Jul-20 21:33N 55°60' E 012°45'0 0.0
2016-Jul-20 20:33N 55°60' E 012°45'0 0.0
2016-Jul-20 19:33N 55°60' E 012°45'0 0.0
2016-Jul-20 18:33N 55°60' E 012°45'0 0.0
2016-Jul-20 17:33N 55°60' E 012°45'0 0.0
2016-Jul-20 16:33N 55°60' E 012°45'0 0.0
2016-Jul-20 15:33N 55°60' E 012°45'2 1.6
2016-Jul-20 14:34N 55°58' E 012°44'4 3.8
2016-Jul-20 13:33N 55°54' E 012°43'5 5.5
2016-Jul-20 12:33N 55°60' E 012°45'0 0.0
2016-Jul-20 11:33N 55°60' E 012°45'0 0.0
2016-Jul-20 10:33N 55°60' E 012°45'5 5.1
2016-Jul-20 09:34N 55°56' E 012°39'0 0.1
2016-Jul-20 08:31N 55°56' E 012°39'2 2.0
2016-Jul-20 07:33N 55°57' E 012°41'2 2.4
2016-Jul-20 06:34N 55°60' E 012°42'2 1.5
2016-Jul-20 05:31N 55°60' E 012°45'0 0.0
2016-Jul-20 04:31N 55°60' E 012°45'0 0.0
2016-Jul-20 03:31N 55°60' E 012°45'0 0.0
2016-Jul-20 02:31N 55°60' E 012°45'0 0.0
2016-Jul-20 01:31N 55°60' E 012°45'0 0.0
2016-Jul-20 00:31N 55°60' E 012°45'0 0.0
2016-Jul-19 23:31N 55°60' E 012°45'0 0.0
2016-Jul-19 22:31N 55°60' E 012°45'0 0.0
2016-Jul-19 21:31N 55°60' E 012°45'0 0.0
2016-Jul-19 20:31N 55°60' E 012°45'0 0.0
2016-Jul-19 19:31N 55°60' E 012°45'0 0.0
2016-Jul-19 18:31N 55°60' E 012°45'0 0.0
2016-Jul-19 17:31N 55°60' E 012°45'0 0.0
2016-Jul-19 16:31N 55°60' E 012°45'0 0.0
2016-Jul-19 15:31N 55°60' E 012°45'2 2.2
2016-Jul-19 14:33N 55°59' E 012°41'1 1.4
2016-Jul-19 13:33N 56°00' E 012°42'1 1.1
2016-Jul-19 12:34N 56°01' E 012°40'3 2.6
2016-Jul-19 11:33N 55°59' E 012°44'0 0.1
2016-Jul-19 10:34N 55°60' E 012°45'5 4.8
2016-Jul-19 09:33N 55°55' E 012°46'5 4.9
2016-Jul-19 08:33N 55°50' E 012°45'0 0.2
2016-Jul-19 07:33N 55°50' E 012°45'10 3.3
2016-Jul-19 04:31N 55°60' E 012°45'0 0.0
2016-Jul-19 03:31N 55°60' E 012°45'0 0.0
2016-Jul-19 02:31N 55°60' E 012°45'0 0.0
2016-Jul-19 01:31N 55°60' E 012°45'0 0.0
2016-Jul-19 00:31N 55°60' E 012°45'0 0.0
2016-Jul-18 23:31N 55°60' E 012°45'0 0.0
2016-Jul-18 22:31N 55°60' E 012°45'0 0.0
2016-Jul-18 21:31N 55°60' E 012°45'0 0.0
2016-Jul-18 20:31N 55°60' E 012°45'0 0.0
2016-Jul-18 19:31N 55°60' E 012°45'0 0.0
2016-Jul-18 18:31N 55°60' E 012°45'0 0.0
2016-Jul-18 17:31N 55°60' E 012°45'0 0.0
2016-Jul-18 16:31N 55°60' E 012°45'1 0.8
2016-Jul-18 15:33N 55°59' E 012°44'5 5.4
2016-Jul-18 14:33N 55°53' E 012°44'0 0.2
2016-Jul-18 13:33N 55°53' E 012°44'0 0.5
2016-Jul-18 12:33N 55°53' E 012°45'7 6.6
2016-Jul-18 11:33N 55°59' E 012°44'0 0.1
2016-Jul-18 10:33N 55°60' E 012°45'1 1.2
2016-Jul-18 09:33N 55°59' E 012°43'4 4.1
2016-Jul-18 08:33N 55°56' E 012°39'2 1.6
2016-Jul-18 07:33N 55°56' E 012°36'2 1.6
2016-Jul-18 06:33N 55°57' E 012°38'4 4.2
2016-Jul-18 05:33N 55°60' E 012°45'0 0.0
2016-Jul-18 04:33N 55°60' E 012°45'0 0.0
2016-Jul-18 03:33N 55°60' E 012°45'0 0.0
2016-Jul-18 02:30N 55°60' E 012°45'0 0.0
2016-Jul-18 01:33N 55°60' E 012°45'0 0.0
2016-Jul-18 00:33N 55°60' E 012°45'0 0.0
2016-Jul-17 23:33N 55°60' E 012°45'0 0.0
2016-Jul-17 22:33N 55°60' E 012°45'0 0.0
2016-Jul-17 21:33N 55°60' E 012°45'0 0.0
2016-Jul-17 20:33N 55°60' E 012°45'0 0.0
2016-Jul-17 19:33N 55°60' E 012°45'0 0.0
2016-Jul-17 18:33N 55°60' E 012°45'0 0.0
2016-Jul-17 17:33N 55°60' E 012°45'0 0.0
2016-Jul-17 16:33N 55°60' E 012°45'2 1.6
2016-Jul-17 15:33N 55°58' E 012°45'5 5.0
2016-Jul-17 14:33N 55°53' E 012°45'1 0.8
2016-Jul-17 13:33N 55°52' E 012°45'0 0.4
2016-Jul-17 12:31N 55°53' E 012°46'6 6.7
2016-Jul-17 11:33N 55°59' E 012°44'1 0.5
2016-Jul-17 10:31N 55°60' E 012°45'4 4.5
2016-Jul-17 09:33N 55°56' E 012°40'0 0.4
2016-Jul-17 08:32N 55°56' E 012°40'3 2.8
2016-Jul-17 07:33N 55°59' E 012°41'1 1.4
2016-Jul-17 06:33N 55°60' E 012°42'2 0.8
2016-Jul-17 04:31N 55°60' E 012°45'0 0.0
2016-Jul-17 03:31N 55°60' E 012°45'0 0.0
2016-Jul-17 02:28N 55°60' E 012°45'0 0.0
2016-Jul-17 01:31N 55°60' E 012°45'0 0.0
2016-Jul-17 00:31N 55°60' E 012°45'0 0.0
2016-Jul-16 23:31N 55°60' E 012°45'0 0.0
2016-Jul-16 22:31N 55°60' E 012°45'0 0.0
2016-Jul-16 21:28N 55°60' E 012°45'0 0.0
2016-Jul-16 20:31N 55°60' E 012°45'0 0.0
2016-Jul-16 19:31N 55°60' E 012°45'0 0.0
2016-Jul-16 18:31N 55°60' E 012°45'0 0.0
2016-Jul-16 17:31N 55°60' E 012°45'0 0.0
2016-Jul-16 16:31N 55°60' E 012°45'0 0.0
2016-Jul-16 15:31N 55°60' E 012°45'0 0.0
2016-Jul-16 14:31N 55°60' E 012°45'0 0.0
2016-Jul-16 13:31N 55°60' E 012°45'0 0.0
2016-Jul-16 12:31N 55°60' E 012°45'0 0.0
2016-Jul-16 11:31N 55°60' E 012°45'0 0.0
2016-Jul-16 10:31N 55°60' E 012°45'5 5.3
2016-Jul-16 09:33N 55°55' E 012°46'1 0.8
2016-Jul-16 08:34N 55°55' E 012°45'2 2.3
2016-Jul-16 07:33N 55°56' E 012°41'3 2.9
2016-Jul-16 06:33N 55°59' E 012°41'2 1.0
2016-Jul-16 04:32N 55°60' E 012°45'0 0.0
2016-Jul-16 03:32N 55°60' E 012°45'0 0.0
2016-Jul-16 02:32N 55°60' E 012°45'0 0.0
2016-Jul-16 01:32N 55°60' E 012°45'0 0.0
2016-Jul-16 00:32N 55°60' E 012°45'0 0.0
2016-Jul-15 23:32N 55°60' E 012°45'0 0.0
2016-Jul-15 22:32N 55°60' E 012°45'0 0.0
2016-Jul-15 21:32N 55°60' E 012°45'0 0.0
2016-Jul-15 20:32N 55°60' E 012°45'0 0.0
2016-Jul-15 19:32N 55°60' E 012°45'0 0.0
2016-Jul-15 18:23N 55°60' E 012°45'0 0.0
2016-Jul-15 17:32N 55°60' E 012°45'0 0.0
2016-Jul-15 16:32N 55°60' E 012°45'2 2.3
2016-Jul-15 15:33N 55°57' E 012°45'3 2.8
2016-Jul-15 14:33N 55°55' E 012°46'2 2.0
2016-Jul-15 13:33N 55°53' E 012°46'0 0.2
2016-Jul-15 12:33N 55°53' E 012°46'7 6.6
2016-Jul-15 11:33N 55°59' E 012°44'0 0.4
2016-Jul-15 10:33N 55°60' E 012°45'2 1.6
2016-Jul-15 09:32N 55°60' E 012°42'3 3.4
2016-Jul-15 08:33N 55°56' E 012°42'2 1.8
2016-Jul-15 07:33N 55°56' E 012°39'1 0.8
2016-Jul-15 06:33N 55°56' E 012°40'4 4.3
2016-Jul-15 05:33N 55°60' E 012°45'0 0.0
2016-Jul-15 04:33N 55°60' E 012°45'0 0.0
2016-Jul-15 03:33N 55°60' E 012°45'0 0.0
2016-Jul-15 02:33N 55°60' E 012°45'0 0.0
2016-Jul-15 01:33N 55°60' E 012°45'0 0.0
2016-Jul-15 00:33N 55°60' E 012°45'0 0.0
2016-Jul-14 23:33N 55°60' E 012°45'0 0.0
2016-Jul-14 22:33N 55°60' E 012°45'0 0.0
2016-Jul-14 21:33N 55°60' E 012°45'0 0.0
2016-Jul-14 20:33N 55°60' E 012°45'0 0.0
2016-Jul-14 19:33N 55°60' E 012°45'  

Dump ship's entire track history